Time;durP1;ratioP1;P1;durP2;ratioP2;P2;SDS_P1;SDS_P2;PMS_P1;PMS_P2;Temp;Humidity;BMP_temperature;BMP_pressure;BME280_temperature;BME280_humidity;BME280_pressure;Samples;Min_cycle;Max_cycle;Signal;HPM_P1;HPM_P2
2022/07/28 00:00:51;;;;;;;3.85;1.63;;;20.00;99.90;;;;;;4976634;28;20182;-34
2022/07/28 00:03:17;;;;;;;2.03;1.75;;;19.90;99.90;;;;;;4978127;28;20175;-34
2022/07/28 00:05:43;;;;;;;2.20;1.70;;;19.90;99.90;;;;;;4976446;28;20246;-34
2022/07/28 00:08:10;;;;;;;2.22;1.90;;;19.90;99.90;;;;;;4986833;28;20214;-34
2022/07/28 00:10:36;;;;;;;3.38;1.73;;;19.80;99.90;;;;;;4979853;28;20187;-34
2022/07/28 00:13:03;;;;;;;2.83;1.70;;;19.80;99.90;;;;;;4995847;28;20181;-35
2022/07/28 00:15:29;;;;;;;2.72;1.98;;;19.70;99.90;;;;;;4994527;28;20295;-35
2022/07/28 00:17:55;;;;;;;2.67;1.83;;;19.70;99.90;;;;;;4996496;28;20293;-35
2022/07/28 00:20:21;;;;;;;4.13;2.17;;;19.60;99.90;;;;;;4996100;28;20175;-35
2022/07/28 00:22:47;;;;;;;2.30;1.90;;;19.60;99.90;;;;;;5014159;28;20171;-34
2022/07/28 00:25:12;;;;;;;3.70;1.85;;;19.60;99.90;;;;;;4996142;28;20193;-35
2022/07/28 00:27:38;;;;;;;3.53;1.85;;;19.50;99.90;;;;;;4979686;28;20207;-34
2022/07/28 00:30:08;;;;;;;2.15;1.80;;;19.50;99.90;;;;;;4979813;28;20192;-35
2022/07/28 00:32:34;;;;;;;3.30;2.08;;;19.50;99.90;;;;;;4995844;28;20186;-35
2022/07/28 00:35:00;;;;;;;4.00;2.00;;;19.50;99.90;;;;;;4979178;28;20207;-35
2022/07/28 00:37:26;;;;;;;3.30;1.70;;;19.50;99.90;;;;;;4979710;28;20243;-35
2022/07/28 00:39:52;;;;;;;2.33;1.98;;;19.40;99.90;;;;;;4995861;28;20209;-34
2022/07/28 00:42:21;;;;;;;3.45;1.92;;;19.50;99.90;;;;;;4979976;28;20183;-35
2022/07/28 00:44:47;;;;;;;3.50;2.22;;;19.40;99.90;;;;;;4978924;28;20278;-34
2022/07/28 00:47:13;;;;;;;1.73;1.60;;;19.40;99.90;;;;;;4995482;28;20199;-34
2022/07/28 00:49:40;;;;;;;3.72;1.90;;;19.40;99.90;;;;;;4995854;28;20215;-34
2022/07/28 00:52:08;;;;;;;2.35;1.77;;;19.40;99.90;;;;;;4979406;28;20195;-34
2022/07/28 00:54:35;;;;;;;2.95;1.63;;;19.30;99.90;;;;;;4979137;28;20231;-34
2022/07/28 00:57:01;;;;;;;2.35;1.80;;;19.40;99.90;;;;;;4979205;28;20304;-35
2022/07/28 00:59:27;;;;;;;2.03;1.83;;;19.30;99.90;;;;;;4979078;28;20221;-35
2022/07/28 01:01:54;;;;;;;2.65;1.88;;;19.30;99.90;;;;;;4979073;28;20233;-34
2022/07/28 01:04:21;;;;;;;3.65;1.88;;;19.20;99.90;;;;;;4978911;28;20187;-34
2022/07/28 01:06:47;;;;;;;3.90;1.90;;;19.20;99.90;;;;;;4975554;28;20218;-35
2022/07/28 01:09:12;;;;;;;4.55;2.28;;;19.20;99.90;;;;;;4995524;28;20226;-35
2022/07/28 01:11:44;;;;;;;2.53;1.90;;;19.20;99.90;;;;;;4994869;28;20274;-35
2022/07/28 01:14:18;;;;;;;4.63;2.20;;;19.10;99.90;;;;;;4979150;28;20216;-36
2022/07/28 01:16:54;;;;;;;3.00;2.00;;;19.10;99.90;;;;;;4978917;28;20206;-34
2022/07/28 01:19:52;;;;;;;3.33;1.80;;;19.10;99.90;;;;;;4995508;28;20218;-34
2022/07/28 01:22:24;;;;;;;3.50;1.80;;;19.10;99.90;;;;;;4978565;28;20183;-35
2022/07/28 01:25:17;;;;;;;4.90;2.10;;;19.00;99.90;;;;;;4994789;28;20202;-34
2022/07/28 01:28:14;;;;;;;2.38;1.88;;;19.00;99.90;;;;;;4978968;28;20207;-34
2022/07/28 01:30:42;;;;;;;3.50;1.90;;;18.90;99.90;;;;;;5012149;28;20235;-34
2022/07/28 01:33:23;;;;;;;3.25;2.05;;;18.80;99.90;;;;;;4978925;28;20183;-35
2022/07/28 01:36:10;;;;;;;2.53;1.92;;;18.70;99.90;;;;;;4994283;28;20255;-35
2022/07/28 01:38:38;;;;;;;2.85;1.80;;;18.60;99.90;;;;;;4994712;28;20191;-34
2022/07/28 01:41:09;;;;;;;3.95;2.05;;;18.60;99.90;;;;;;4974910;28;20199;-34
2022/07/28 01:43:39;;;;;;;1.88;1.70;;;18.70;99.90;;;;;;4975263;28;20176;-34
2022/07/28 01:46:07;;;;;;;3.80;2.00;;;18.70;99.90;;;;;;4978049;28;20233;-35
2022/07/28 01:48:34;;;;;;;3.40;1.80;;;18.70;99.90;;;;;;4979112;28;20660;-36
2022/07/28 01:51:02;;;;;;;3.58;2.35;;;18.70;99.90;;;;;;4994537;28;20194;-35
2022/07/28 01:53:31;;;;;;;2.35;1.92;;;18.70;99.90;;;;;;4978117;28;20215;-37
2022/07/28 01:55:58;;;;;;;3.75;2.30;;;18.60;99.90;;;;;;4994078;28;20183;-37
2022/07/28 01:58:25;;;;;;;2.83;1.75;;;18.60;99.90;;;;;;4993702;28;20735;-36
2022/07/28 02:00:52;;;;;;;3.42;2.00;;;18.50;99.90;;;;;;4997496;28;20174;-35
2022/07/28 02:03:20;;;;;;;3.05;2.25;;;18.40;99.90;;;;;;4997313;28;20200;-35
2022/07/28 02:05:49;;;;;;;3.50;2.33;;;18.30;99.90;;;;;;4997373;28;20186;-35
2022/07/28 02:08:18;;;;;;;3.50;2.10;;;18.30;99.90;;;;;;4986176;28;20209;-36
2022/07/28 02:11:38;;;;;;;4.07;2.28;;;18.30;99.90;;;;;;5011884;28;20190;-35
2022/07/28 02:13:33;;;;;;;3.10;2.08;;;18.20;99.90;;;;;;5000880;28;20320;-36
2022/07/28 02:16:01;;;;;;;3.00;2.13;;;18.10;99.90;;;;;;5010884;28;20259;-35
2022/07/28 02:18:28;;;;;;;2.20;2.00;;;18.10;99.90;;;;;;4987392;28;20294;-35
2022/07/28 02:20:54;;;;;;;3.35;2.25;;;18.10;99.90;;;;;;4977774;28;20189;-36
2022/07/28 02:23:22;;;;;;;5.20;2.25;;;18.10;99.90;;;;;;4998010;28;20642;-35
2022/07/28 02:25:50;;;;;;;3.63;2.28;;;18.00;99.90;;;;;;5009770;28;20233;-35
2022/07/28 02:28:20;;;;;;;3.90;2.28;;;18.00;99.90;;;;;;4990180;28;20286;-35
2022/07/28 02:31:03;;;;;;;2.47;2.28;;;18.00;99.90;;;;;;4994035;28;20229;-35
2022/07/28 02:33:33;;;;;;;5.20;3.07;;;17.90;99.90;;;;;;4997972;28;20227;-35
2022/07/28 02:36:05;;;;;;;3.80;2.20;;;17.90;99.90;;;;;;5010185;28;20171;-36
2022/07/28 02:38:38;;;;;;;3.67;2.60;;;17.80;99.90;;;;;;4997734;28;20207;-35
2022/07/28 02:41:13;;;;;;;4.00;2.40;;;17.70;99.90;;;;;;4993698;28;20175;-35
2022/07/28 02:43:45;;;;;;;3.83;2.10;;;17.80;99.90;;;;;;4988588;28;20211;-35
2022/07/28 02:46:15;;;;;;;6.20;2.80;;;17.70;99.90;;;;;;4993547;28;20198;-36
2022/07/28 02:48:46;;;;;;;7.87;2.50;;;17.70;99.90;;;;;;4992851;28;20533;-35
2022/07/28 02:51:13;;;;;;;3.77;2.93;;;17.60;99.90;;;;;;5010131;28;20274;-35
2022/07/28 02:53:40;;;;;;;3.27;2.50;;;17.60;99.90;;;;;;4981926;28;20210;-36
2022/07/28 02:56:08;;;;;;;3.20;2.40;;;17.60;99.90;;;;;;5010758;28;20178;-36
2022/07/28 02:58:36;;;;;;;2.97;2.50;;;17.50;99.90;;;;;;4986797;28;20236;-35
2022/07/28 03:01:02;;;;;;;2.90;2.27;;;17.50;99.90;;;;;;4993375;28;20174;-35
2022/07/28 03:03:29;;;;;;;5.90;2.70;;;17.40;99.90;;;;;;4984718;28;20232;-35
2022/07/28 03:05:55;;;;;;;3.23;2.50;;;17.40;99.90;;;;;;4977247;28;20180;-35
2022/07/28 03:08:21;;;;;;;3.87;2.50;;;17.30;99.90;;;;;;4999870;28;20196;-35
2022/07/28 03:10:47;;;;;;;3.03;2.60;;;17.20;99.90;;;;;;4993330;28;20183;-35
2022/07/28 03:13:13;;;;;;;4.47;2.83;;;17.10;99.90;;;;;;5003813;28;20217;-35
2022/07/28 03:15:41;;;;;;;3.00;2.70;;;17.10;99.90;;;;;;4993188;28;20185;-35
2022/07/28 03:18:10;;;;;;;3.67;2.60;;;17.10;99.90;;;;;;4980844;28;20199;-35
2022/07/28 03:20:36;;;;;;;2.67;2.40;;;17.00;99.90;;;;;;4993758;28;20190;-35
2022/07/28 03:23:03;;;;;;;4.50;2.40;;;16.90;99.90;;;;;;4986082;28;20180;-38
2022/07/28 03:25:45;;;;;;;2.77;2.47;;;16.90;99.90;;;;;;4973587;28;20191;-35
2022/07/28 03:28:16;;;;;;;2.97;2.47;;;16.80;99.90;;;;;;4985178;28;20203;-35
2022/07/28 04:31:44;;;;;;;3.47;2.83;;;15.70;99.90;;;;;;5080073;27;20549;-44
2022/07/28 04:34:10;;;;;;;3.43;2.73;;;15.80;99.90;;;;;;5075590;28;20181;-44
2022/07/28 04:36:40;;;;;;;2.77;2.50;;;15.80;99.90;;;;;;5079894;28;20235;-44
2022/07/28 04:39:09;;;;;;;3.33;3.03;;;15.80;99.90;;;;;;5085997;28;20218;-44
2022/07/28 04:41:36;;;;;;;3.70;2.77;;;15.80;99.90;;;;;;5084547;28;20204;-44
2022/07/28 04:44:02;;;;;;;4.33;2.97;;;15.80;99.90;;;;;;5107683;22;20223;-29
2022/07/28 04:46:28;;;;;;;5.73;2.90;;;15.80;99.90;;;;;;5020750;28;20185;-28
2022/07/28 04:48:54;;;;;;;3.90;2.90;;;15.80;99.90;;;;;;5042896;28;20182;-29
2022/07/28 04:51:21;;;;;;;3.93;3.03;;;15.80;99.90;;;;;;5028805;28;20280;-28
2022/07/28 04:53:47;;;;;;;5.20;2.80;;;15.90;99.90;;;;;;5028431;28;20201;-28
2022/07/28 04:56:13;;;;;;;4.90;3.27;;;16.00;99.90;;;;;;5028609;28;20181;-29
2022/07/28 04:58:39;;;;;;;4.87;3.17;;;16.10;99.90;;;;;;5045849;28;20224;-29
2022/07/28 05:01:06;;;;;;;5.83;3.53;;;16.20;99.90;;;;;;5044917;28;20214;-28
2022/07/28 05:03:32;;;;;;;3.40;3.07;;;16.30;99.90;;;;;;5043000;28;20285;-28
2022/07/28 05:05:57;;;;;;;4.37;3.00;;;16.40;99.90;;;;;;5044572;28;20277;-28
2022/07/28 05:08:23;;;;;;;3.47;2.97;;;16.40;99.90;;;;;;5043408;28;20181;-29
2022/07/28 05:10:49;;;;;;;3.07;2.77;;;16.50;99.90;;;;;;5045032;28;20182;-29
2022/07/28 05:13:15;;;;;;;4.97;3.00;;;16.60;99.90;;;;;;5029017;28;20236;-29
2022/07/28 05:15:41;;;;;;;4.27;3.23;;;16.70;99.90;;;;;;5045409;28;20192;-29
2022/07/28 05:18:06;;;;;;;6.43;3.27;;;16.70;99.90;;;;;;5045203;28;20261;-29
2022/07/28 05:20:32;;;;;;;3.43;2.70;;;16.70;99.90;;;;;;5028726;28;20621;-29
2022/07/28 05:22:58;;;;;;;5.77;3.00;;;16.80;99.90;;;;;;5044971;28;20541;-29
2022/07/28 05:25:25;;;;;;;5.73;2.83;;;16.90;99.90;;;;;;5045555;28;20181;-29
2022/07/28 05:27:51;;;;;;;5.17;2.80;;;17.00;99.90;;;;;;5044549;28;20261;-29
2022/07/28 05:30:18;;;;;;;3.23;2.80;;;17.10;99.90;;;;;;5028885;28;20182;-29
2022/07/28 05:32:44;;;;;;;3.73;2.50;;;17.10;99.90;;;;;;5011434;28;20202;-29
2022/07/28 05:35:10;;;;;;;4.87;3.00;;;17.10;99.90;;;;;;4995855;28;20230;-29
2022/07/28 05:37:36;;;;;;;4.03;2.67;;;17.20;99.90;;;;;;5011777;28;20194;-29
2022/07/28 05:40:09;;;;;;;7.83;2.90;;;17.30;99.90;;;;;;5012096;28;20207;-28
2022/07/28 05:42:35;;;;;;;2.90;2.70;;;17.30;99.90;;;;;;5030588;28;20178;-29
2022/07/28 05:45:04;;;;;;;5.50;2.53;;;17.30;99.90;;;;;;5011673;28;20234;-29
2022/07/28 05:47:30;;;;;;;2.80;2.33;;;17.40;99.90;;;;;;5000353;28;20176;-28
2022/07/28 05:50:27;;;;;;;6.43;2.87;;;17.50;99.90;;;;;;5023403;28;20251;-27
2022/07/28 05:52:53;;;;;;;3.43;2.27;;;17.60;99.90;;;;;;5014477;28;20202;-27
2022/07/28 05:55:19;;;;;;;6.07;2.80;;;17.70;99.90;;;;;;5014834;28;21291;-27
2022/07/28 05:57:45;;;;;;;3.70;2.70;;;17.80;99.90;;;;;;5037864;28;20228;-27
2022/07/28 06:00:22;;;;;;;3.13;2.53;;;18.00;99.90;;;;;;5051048;28;20214;-27
2022/07/28 06:02:49;;;;;;;5.07;3.00;;;18.20;99.90;;;;;;5035954;28;20182;-27
2022/07/28 06:05:16;;;;;;;5.83;2.87;;;18.20;99.90;;;;;;5015256;28;20209;-28
2022/07/28 06:07:43;;;;;;;6.88;2.90;;;18.30;99.90;;;;;;5013403;28;20179;-28
2022/07/28 06:10:09;;;;;;;6.95;3.13;;;18.50;99.90;;;;;;5014054;28;20186;-28
2022/07/28 06:12:40;;;;;;;6.47;2.67;;;18.60;99.90;;;;;;5030614;28;20213;-27
2022/07/28 06:15:10;;;;;;;6.70;3.17;;;18.70;99.90;;;;;;5030983;28;20268;-29
2022/07/28 06:17:36;;;;;;;4.45;2.67;;;18.90;99.90;;;;;;5013804;28;20175;-28
2022/07/28 06:20:03;;;;;;;5.97;2.30;;;18.90;99.90;;;;;;5030601;28;20221;-28
2022/07/28 06:22:38;;;;;;;3.50;2.20;;;19.10;99.90;;;;;;5030948;28;20182;-30
2022/07/28 06:25:05;;;;;;;4.82;2.40;;;19.30;99.90;;;;;;5014198;28;20624;-29
2022/07/28 06:27:30;;;;;;;5.40;2.30;;;19.40;99.90;;;;;;5030976;28;20221;-29
2022/07/28 06:29:56;;;;;;;5.35;2.47;;;19.40;99.90;;;;;;5030356;28;20214;-29
2022/07/28 06:32:22;;;;;;;6.45;2.88;;;19.40;99.90;;;;;;5043114;28;20239;-29
2022/07/28 06:34:48;;;;;;;5.38;2.42;;;19.60;99.90;;;;;;5052517;28;20204;-29
2022/07/28 06:37:14;;;;;;;4.65;2.70;;;19.70;99.90;;;;;;5050748;28;20182;-29
2022/07/28 06:39:39;;;;;;;5.10;2.45;;;19.90;99.90;;;;;;5047495;28;20206;-29
2022/07/28 06:42:05;;;;;;;4.35;2.50;;;20.00;99.90;;;;;;5030467;28;20179;-29
2022/07/28 06:44:31;;;;;;;4.45;2.38;;;20.20;99.90;;;;;;5011401;28;20762;-29
2022/07/28 06:46:57;;;;;;;4.68;2.70;;;20.30;99.90;;;;;;5030548;28;20189;-29
2022/07/28 06:49:23;;;;;;;3.67;2.40;;;20.50;99.90;;;;;;5030225;28;20179;-29
2022/07/28 06:51:49;;;;;;;3.60;2.60;;;20.60;99.90;;;;;;5012784;28;20208;-29
2022/07/28 06:54:14;;;;;;;5.22;2.75;;;20.70;99.90;;;;;;5031690;28;20214;-28
2022/07/28 06:56:40;;;;;;;3.90;2.40;;;20.80;99.90;;;;;;5029399;28;20183;-30
2022/07/28 06:59:06;;;;;;;3.22;2.92;;;21.00;99.90;;;;;;5024787;28;20226;-29
2022/07/28 07:01:32;;;;;;;3.83;2.88;;;21.10;99.90;;;;;;5010310;28;20248;-29
2022/07/28 07:03:58;;;;;;;6.20;2.70;;;21.30;99.90;;;;;;5027334;28;20206;-30
2022/07/28 07:06:23;;;;;;;5.43;2.60;;;21.30;99.90;;;;;;5010194;28;20232;-29
2022/07/28 07:08:49;;;;;;;3.05;2.60;;;21.50;99.90;;;;;;5029214;28;20171;-29
2022/07/28 07:11:15;;;;;;;5.45;2.60;;;21.50;99.90;;;;;;5028820;28;20205;-29
2022/07/28 07:13:41;;;;;;;5.13;2.65;;;21.50;99.90;;;;;;5029024;28;20195;-29
2022/07/28 07:16:07;;;;;;;3.72;3.15;;;21.60;99.90;;;;;;5030131;28;20174;-29
2022/07/28 07:18:32;;;;;;;3.85;2.88;;;21.70;99.90;;;;;;5028618;28;20198;-29
2022/07/28 07:20:59;;;;;;;5.13;3.08;;;21.80;99.90;;;;;;5029408;28;20206;-30
2022/07/28 07:23:27;;;;;;;3.20;2.90;;;21.90;99.90;;;;;;5013055;28;20209;-29
2022/07/28 07:25:56;;;;;;;2.95;2.63;;;22.10;99.90;;;;;;5027953;28;20182;-30
2022/07/28 07:28:23;;;;;;;3.45;3.03;;;22.00;99.90;;;;;;5029096;28;20261;-30
2022/07/28 07:30:50;;;;;;;3.95;3.00;;;22.00;99.90;;;;;;5029584;28;20191;-30
2022/07/28 07:33:16;;;;;;;3.97;3.22;;;22.20;99.90;;;;;;5031943;28;20210;-29
2022/07/28 07:35:43;;;;;;;4.70;2.97;;;22.40;99.90;;;;;;5011813;28;20190;-29
2022/07/28 07:38:09;;;;;;;4.90;3.63;;;22.50;99.90;;;;;;5012801;28;20179;-28
2022/07/28 07:40:35;;;;;;;4.65;3.80;;;22.50;99.90;;;;;;5023263;28;20217;-28
2022/07/28 07:43:00;;;;;;;5.15;3.30;;;22.60;99.90;;;;;;5028692;28;20174;-29
2022/07/28 07:45:26;;;;;;;5.13;3.55;;;22.70;99.90;;;;;;5029619;28;20529;-29
2022/07/28 07:47:52;;;;;;;5.45;4.40;;;22.90;99.90;;;;;;5011882;28;20242;-29
2022/07/28 07:50:18;;;;;;;5.25;4.22;;;22.70;99.90;;;;;;5028445;28;20175;-28
2022/07/28 07:52:44;;;;;;;4.15;3.67;;;22.70;99.90;;;;;;5029439;28;20201;-29
2022/07/28 07:55:10;;;;;;;4.53;3.97;;;22.90;99.90;;;;;;5012967;28;20221;-29
2022/07/28 07:57:36;;;;;;;5.22;4.30;;;23.10;99.90;;;;;;5029570;28;20187;-29
2022/07/28 08:00:02;;;;;;;5.10;3.92;;;23.30;99.90;;;;;;5028528;28;20228;-29
2022/07/28 08:02:30;;;;;;;4.47;3.67;;;23.40;99.90;;;;;;5029962;28;20182;-28
2022/07/28 08:04:55;;;;;;;4.53;4.13;;;23.50;99.90;;;;;;5029909;28;20191;-28
2022/07/28 08:07:21;;;;;;;5.47;3.70;;;23.60;99.90;;;;;;5029445;28;20174;-28
2022/07/28 08:09:47;;;;;;;6.32;4.10;;;23.80;99.90;;;;;;5012973;28;20208;-29
2022/07/28 08:12:13;;;;;;;4.88;4.38;;;23.90;99.90;;;;;;5029137;28;20221;-30
2022/07/28 08:14:38;;;;;;;8.15;4.60;;;23.70;99.90;;;;;;5013117;28;20202;-29
2022/07/28 08:17:04;;;;;;;4.95;4.43;;;23.80;99.90;;;;;;5012268;28;20193;-29
2022/07/28 08:19:30;;;;;;;4.63;4.22;;;24.00;99.90;;;;;;5029137;28;20212;-30
2022/07/28 08:21:56;;;;;;;5.47;4.13;;;24.20;99.90;;;;;;5028919;28;20537;-30
2022/07/28 08:24:22;;;;;;;7.05;4.72;;;24.40;99.90;;;;;;5029206;28;20195;-29
2022/07/28 08:26:49;;;;;;;5.40;4.40;;;24.50;99.90;;;;;;5029464;28;20236;-29
2022/07/28 08:29:15;;;;;;;5.07;4.55;;;24.70;99.90;;;;;;5013059;28;20174;-29
2022/07/28 08:31:41;;;;;;;4.60;4.15;;;24.90;99.90;;;;;;5028850;28;20187;-29
2022/07/28 08:34:07;;;;;;;5.63;4.72;;;24.90;99.90;;;;;;5028974;28;20206;-29
2022/07/28 08:36:33;;;;;;;5.45;4.70;;;25.00;99.90;;;;;;5029085;28;20257;-29
2022/07/28 08:38:58;;;;;;;5.10;4.47;;;25.00;99.90;;;;;;5029253;28;20248;-31
2022/07/28 08:41:31;;;;;;;4.72;4.32;;;25.00;99.90;;;;;;5029415;28;20218;-30
2022/07/28 08:43:58;;;;;;;5.75;5.13;;;25.20;99.90;;;;;;5011488;28;20245;-31
2022/07/28 08:46:24;;;;;;;8.18;5.15;;;25.10;99.90;;;;;;5029428;28;20194;-31
2022/07/28 08:48:50;;;;;;;6.32;4.93;;;25.00;99.90;;;;;;5045821;28;20194;-30
2022/07/28 08:51:19;;;;;;;5.18;4.65;;;25.30;99.90;;;;;;5028722;28;20221;-29
2022/07/28 08:53:47;;;;;;;7.10;5.05;;;25.50;99.90;;;;;;5029077;28;20191;-29
2022/07/28 08:56:14;;;;;;;7.05;5.10;;;25.70;99.90;;;;;;5029009;28;20723;-30
2022/07/28 08:58:42;;;;;;;5.50;5.00;;;25.80;99.90;;;;;;5012266;28;20186;-29
2022/07/28 09:01:09;;;;;;;5.40;4.90;;;25.90;99.90;;;;;;5029767;28;20194;-30
2022/07/28 09:03:37;;;;;;;7.50;4.93;;;26.20;99.90;;;;;;5027692;28;20195;-30
2022/07/28 09:06:04;;;;;;;5.60;5.05;;;26.40;99.90;;;;;;5027976;28;20179;-29
2022/07/28 09:08:31;;;;;;;6.43;5.20;;;26.50;99.90;;;;;;5015508;28;20178;-30
2022/07/28 09:10:57;;;;;;;5.72;4.90;;;26.60;99.90;;;;;;5032718;28;20198;-29
2022/07/28 09:13:24;;;;;;;5.32;4.82;;;26.40;99.90;;;;;;5033481;28;20226;-29
2022/07/28 09:15:50;;;;;;;5.72;4.68;;;26.80;99.90;;;;;;5032185;28;20175;-29
2022/07/28 09:18:22;;;;;;;7.40;4.72;;;27.00;99.90;;;;;;5031532;28;20213;-32
2022/07/28 09:20:50;;;;;;;5.63;4.55;;;27.30;99.90;;;;;;5031104;28;20257;-29
2022/07/28 09:23:18;;;;;;;4.50;4.10;;;27.50;99.30;;;;;;5018293;28;20237;-29
2022/07/28 09:25:45;;;;;;;7.03;4.78;;;27.50;99.90;;;;;;5052227;28;20186;-29
2022/07/28 09:28:20;;;;;;;5.50;5.00;;;27.80;99.90;;;;;;5052829;28;20224;-30
2022/07/28 09:30:48;;;;;;;5.03;4.18;;;27.90;99.60;;;;;;5034534;28;20233;-30
2022/07/28 09:33:17;;;;;;;4.65;4.18;;;28.00;99.80;;;;;;5051496;28;20259;-29
2022/07/28 09:35:48;;;;;;;5.65;4.45;;;28.00;99.30;;;;;;5068482;28;20205;-30
2022/07/28 09:38:16;;;;;;;5.68;4.70;;;28.10;99.80;;;;;;5050781;28;20248;-30
2022/07/28 09:40:56;;;;;;;4.95;4.53;;;28.20;99.20;;;;;;5051409;28;20178;-31
2022/07/28 09:43:36;;;;;;;4.75;4.25;;;28.20;99.00;;;;;;5052001;28;20201;-31
2022/07/28 09:46:16;;;;;;;5.20;4.30;;;28.40;98.50;;;;;;5052932;28;20192;-30
2022/07/28 09:48:48;;;;;;;6.10;4.40;;;28.40;98.70;;;;;;5035482;28;20188;-30
2022/07/28 09:51:19;;;;;;;4.75;4.28;;;28.50;99.10;;;;;;5062196;28;20207;-30
2022/07/28 09:53:45;;;;;;;5.88;4.50;;;28.30;98.40;;;;;;5031656;28;20199;-30
2022/07/28 09:56:11;;;;;;;4.75;4.20;;;27.80;98.70;;;;;;5014990;28;20182;-30
2022/07/28 09:58:38;;;;;;;4.90;4.50;;;27.90;99.90;;;;;;5030641;28;20234;-30
2022/07/28 10:01:14;;;;;;;5.15;4.65;;;28.00;99.60;;;;;;5016545;28;20187;-30
2022/07/28 10:03:42;;;;;;;5.90;4.78;;;27.90;99.00;;;;;;5051309;28;20201;-30
2022/07/28 10:06:14;;;;;;;4.70;4.30;;;27.70;99.70;;;;;;5024412;28;20274;-30
2022/07/28 10:08:46;;;;;;;7.60;4.85;;;27.80;99.30;;;;;;5031664;28;20193;-30
2022/07/28 10:11:14;;;;;;;5.60;4.30;;;27.80;99.70;;;;;;5031043;28;20272;-30
2022/07/28 10:14:04;;;;;;;6.68;4.72;;;27.90;99.40;;;;;;5015192;28;20253;-30
2022/07/28 10:16:42;;;;;;;4.72;4.30;;;28.10;99.10;;;;;;5028277;28;20167;-30
2022/07/28 10:19:08;;;;;;;5.40;4.85;;;28.10;99.60;;;;;;5014148;28;20174;-30
2022/07/28 10:21:43;;;;;;;9.55;5.32;;;28.10;99.20;;;;;;5014287;28;20178;-30
2022/07/28 10:24:13;;;;;;;8.23;4.85;;;28.10;99.20;;;;;;5031014;28;20190;-30
2022/07/28 10:26:45;;;;;;;5.85;4.95;;;27.80;99.40;;;;;;5021974;28;20201;-29
2022/07/28 10:29:16;;;;;;;6.30;5.00;;;27.80;99.30;;;;;;5014789;28;20175;-29
2022/07/28 10:31:58;;;;;;;7.57;4.97;;;27.70;99.40;;;;;;5013537;28;20179;-29
2022/07/28 10:34:28;;;;;;;5.07;4.57;;;27.50;99.60;;;;;;5013524;28;20272;-30
2022/07/28 10:36:55;;;;;;;6.28;4.65;;;27.40;99.90;;;;;;5031191;28;20175;-29
2022/07/28 10:39:24;;;;;;;6.30;4.50;;;27.40;99.90;;;;;;5013322;28;20178;-31
2022/07/28 10:41:50;;;;;;;5.72;4.47;;;27.20;99.60;;;;;;5026866;28;20191;-31
2022/07/28 10:44:18;;;;;;;6.63;5.00;;;27.30;99.90;;;;;;5043252;22;20232;-32
2022/07/28 10:46:44;;;;;;;5.57;4.93;;;27.40;99.90;;;;;;5045887;28;20220;-32
2022/07/28 10:49:13;;;;;;;8.25;5.10;;;27.50;99.90;;;;;;5039464;28;20208;-32
2022/07/28 10:51:45;;;;;;;5.38;4.85;;;27.60;99.90;;;;;;5035496;28;20227;-32
2022/07/28 10:54:28;;;;;;;5.20;4.70;;;27.80;99.90;;;;;;5038039;28;20197;-32
2022/07/28 10:56:56;;;;;;;6.25;4.45;;;27.80;99.30;;;;;;5052847;28;20185;-32
2022/07/28 10:59:49;;;;;;;7.45;5.40;;;28.00;99.50;;;;;;5053229;28;20169;-32
2022/07/28 11:02:49;;;;;;;5.85;4.82;;;27.80;98.90;;;;;;5053229;28;20182;-32
2022/07/28 11:05:35;;;;;;;6.03;5.00;;;28.10;99.40;;;;;;5061122;28;20207;-32
2022/07/28 11:08:04;;;;;;;5.57;5.07;;;28.30;98.90;;;;;;5063655;28;20180;-35
2022/07/28 11:10:48;;;;;;;6.70;4.80;;;28.20;98.80;;;;;;5061398;28;20255;-34
2022/07/28 11:13:31;;;;;;;5.18;4.75;;;28.10;99.00;;;;;;5046625;28;20212;-35
2022/07/28 11:16:13;;;;;;;6.15;4.82;;;28.30;98.80;;;;;;5060737;28;20169;-34
2022/07/28 11:19:05;;;;;;;5.07;4.57;;;28.50;98.50;;;;;;5061526;28;20228;-35
2022/07/28 11:21:32;;;;;;;5.75;4.32;;;28.30;98.70;;;;;;5056337;28;20200;-35
2022/07/28 11:24:00;;;;;;;5.05;4.45;;;28.40;98.40;;;;;;5051035;28;20242;-35
2022/07/28 11:26:34;;;;;;;5.30;4.80;;;28.10;98.90;;;;;;5062181;28;20241;-35
2022/07/28 11:28:59;;;;;;;5.80;4.68;;;28.10;98.50;;;;;;5066996;28;20226;-37
2022/07/28 11:31:45;;;;;;;5.18;4.60;;;27.80;98.50;;;;;;5051894;28;20276;-35
2022/07/28 11:34:23;;;;;;;4.93;4.50;;;28.00;98.80;;;;;;5034047;28;20233;-35
2022/07/28 11:37:08;;;;;;;6.78;4.25;;;28.40;98.20;;;;;;5067553;28;20270;-35
2022/07/28 11:39:38;;;;;;;4.68;4.28;;;28.80;98.00;;;;;;5045800;28;20276;-34
2022/07/28 11:42:28;;;;;;;4.03;3.63;;;29.30;97.40;;;;;;5063843;28;20181;-35
2022/07/28 11:45:16;;;;;;;3.97;3.67;;;29.40;96.20;;;;;;5061840;28;20223;-35
2022/07/28 11:47:43;;;;;;;4.28;3.97;;;29.60;96.40;;;;;;5052027;28;20256;-35
2022/07/28 11:50:14;;;;;;;4.93;4.28;;;30.10;95.40;;;;;;5051983;28;20200;-36
2022/07/28 11:52:53;;;;;;;4.05;3.70;;;30.50;95.00;;;;;;5042591;28;20185;-35
2022/07/28 11:55:19;;;;;;;4.03;3.72;;;30.80;94.80;;;;;;5058840;28;20197;-35
2022/07/28 11:57:46;;;;;;;5.03;4.63;;;30.70;93.80;;;;;;5069785;28;20181;-35
2022/07/28 12:00:23;;;;;;;4.40;3.92;;;30.70;94.20;;;;;;5069060;28;20188;-35
2022/07/28 12:02:49;;;;;;;4.40;4.00;;;30.70;94.40;;;;;;5047771;28;20232;-35
2022/07/28 12:05:16;;;;;;;4.65;3.70;;;30.60;94.00;;;;;;5052373;28;20198;-35
2022/07/28 12:07:50;;;;;;;4.45;3.90;;;30.70;93.50;;;;;;5051591;28;20185;-35
2022/07/28 12:10:27;;;;;;;4.85;3.60;;;30.50;93.70;;;;;;5044665;28;20210;-35
2022/07/28 12:12:58;;;;;;;4.68;3.70;;;30.70;93.40;;;;;;5061173;28;20174;-35
2022/07/28 12:15:27;;;;;;;4.28;3.88;;;30.40;93.60;;;;;;5064107;28;20232;-35
2022/07/28 12:17:55;;;;;;;3.90;3.50;;;30.40;94.00;;;;;;5050753;28;20178;-35
2022/07/28 12:20:21;;;;;;;5.30;3.60;;;30.30;93.40;;;;;;5064739;28;20185;-33
2022/07/28 12:23:06;;;;;;;4.70;3.40;;;30.50;94.10;;;;;;5047536;28;20184;-33
2022/07/28 12:25:45;;;;;;;3.88;3.22;;;30.60;93.60;;;;;;5058759;28;20204;-33
2022/07/28 12:28:15;;;;;;;6.07;3.70;;;30.80;92.20;;;;;;5069475;28;20185;-33
2022/07/28 12:30:41;;;;;;;6.50;3.80;;;31.30;92.20;;;;;;5057853;28;20284;-32
2022/07/28 12:33:20;;;;;;;4.00;3.45;;;31.60;91.80;;;;;;5048817;28;20267;-33
2022/07/28 12:35:48;;;;;;;3.88;3.15;;;31.80;91.40;;;;;;5051080;28;20185;-34
2022/07/28 12:38:15;;;;;;;4.18;3.38;;;31.70;91.10;;;;;;5052317;28;20187;-33
2022/07/28 12:40:43;;;;;;;3.95;3.55;;;31.30;91.00;;;;;;5068134;28;20196;-33
2022/07/28 12:43:08;;;;;;;4.90;3.45;;;31.20;91.70;;;;;;5055207;28;20180;-33
2022/07/28 12:45:47;;;;;;;3.60;3.30;;;31.30;92.20;;;;;;5055208;28;20220;-33
2022/07/28 12:48:15;;;;;;;5.63;3.35;;;31.10;91.50;;;;;;5048262;28;20243;-33
2022/07/28 12:50:41;;;;;;;6.05;3.25;;;31.30;91.10;;;;;;5047182;28;20295;-34
2022/07/28 12:53:09;;;;;;;4.38;3.65;;;31.30;90.40;;;;;;5058423;28;20174;-33
2022/07/28 12:55:36;;;;;;;3.38;3.08;;;31.20;90.00;;;;;;5065394;28;20212;-33
2022/07/28 12:58:03;;;;;;;4.05;3.28;;;31.30;90.50;;;;;;5088855;28;20177;-32
2022/07/28 13:00:48;;;;;;;4.53;3.33;;;31.20;91.10;;;;;;5063193;28;20185;-32
2022/07/28 13:03:25;;;;;;;4.68;3.53;;;31.20;91.80;;;;;;5063172;28;20258;-33
2022/07/28 13:06:02;;;;;;;3.70;3.40;;;31.20;91.00;;;;;;5049877;28;20182;-32
2022/07/28 13:08:40;;;;;;;3.83;3.45;;;31.40;91.20;;;;;;5068184;28;20232;-32
2022/07/28 13:11:07;;;;;;;6.82;3.60;;;31.80;90.10;;;;;;5069634;28;20197;-33
2022/07/28 13:13:50;;;;;;;5.30;3.72;;;32.10;90.00;;;;;;5067962;28;20757;-33
2022/07/28 13:16:18;;;;;;;4.55;3.55;;;32.50;89.10;;;;;;5063502;28;20181;-32
2022/07/28 13:18:52;;;;;;;5.45;3.42;;;32.80;87.60;;;;;;5045247;28;20176;-33
2022/07/28 13:21:44;;;;;;;3.50;3.20;;;33.10;85.90;;;;;;5060678;28;20184;-32
2022/07/28 13:24:18;;;;;;;5.25;3.72;;;33.20;86.30;;;;;;5057991;28;20274;-32
2022/07/28 13:26:44;;;;;;;3.67;3.38;;;33.30;85.60;;;;;;5056948;28;20242;-33
2022/07/28 13:29:11;;;;;;;7.80;3.40;;;33.30;86.70;;;;;;5069089;28;20272;-33
2022/07/28 13:31:37;;;;;;;4.68;3.60;;;33.40;85.80;;;;;;5055346;28;20209;-32
2022/07/28 13:34:08;;;;;;;3.63;3.33;;;33.60;86.30;;;;;;5054671;28;20215;-32
2022/07/28 13:36:36;;;;;;;5.00;3.72;;;33.90;83.50;;;;;;5055647;28;20231;-33
2022/07/28 13:39:03;;;;;;;4.13;3.63;;;33.80;84.50;;;;;;5055574;28;20177;-33
2022/07/28 13:41:30;;;;;;;5.30;3.70;;;33.80;85.30;;;;;;5071599;28;20184;-33
2022/07/28 13:43:58;;;;;;;5.00;3.55;;;33.80;83.50;;;;;;5049605;28;20732;-33
2022/07/28 13:46:25;;;;;;;4.53;3.92;;;33.80;83.60;;;;;;5066483;28;20181;-34
2022/07/28 13:48:51;;;;;;;4.97;4.00;;;33.50;83.20;;;;;;5055312;28;20268;-32
2022/07/28 13:51:17;;;;;;;5.35;3.65;;;33.60;83.90;;;;;;5071175;28;20240;-33
2022/07/28 13:53:43;;;;;;;3.92;3.63;;;33.80;83.20;;;;;;5068683;28;20233;-32
2022/07/28 13:56:09;;;;;;;5.43;3.85;;;34.00;82.10;;;;;;5067204;28;20178;-32
2022/07/28 13:58:36;;;;;;;4.57;3.60;;;34.10;82.00;;;;;;5036819;28;20189;-33
2022/07/28 14:01:03;;;;;;;5.05;3.92;;;34.10;82.50;;;;;;5039436;28;20184;-32